ETMN 200120Z 30013KT 9999 BKN006 12/11 Q1019 YLO ETMN 200020Z 29016KT 7000 BKN004 12/11 Q1019 YLO ETMN 192320Z 28016KT 6000 BKN002 13/12 Q1019 AMB ETMN 192220Z 27013KT 7000 BKN004 BKN012 15/14 Q1018 YLO ETMN 192120Z 30006KT 9000 BKN010 16/15 Q1018 GRN ETMN 192020Z 29006KT 9000 FEW012 SCT029 BKN300 17/16 Q1017 BLU+ ETMN 191936Z 25007KT 9000 SCT029 BKN300 17/16 Q1017 BLU+ ETMN 191920Z 25007KT 7000 FEW003 SCT100 BKN300 17/16 Q1017 WHT ETMN 191820Z 28004KT 5000 BR FEW003 BKN270 17/16 Q1015 WHT ETMN 191758Z 31004KT 4800 BR SCT003 SCT100 BKN250 17/16 Q1015 GRN FCST CNL TEMPO GRN ETMN 191720Z 06002KT 4500 BR FEW003 BKN120 BKN220 17/16 Q1015 GRN WHT TEMPO GRN ETMN 191620Z 27004KT 5000 -RA BR BKN058 BKN100 16/15 Q1016 RETSRA WHT WHT BECMG BLU ETMN 191554Z 28018KT 3000 +TSRA BR BKN050CB OVC080 17/15 Q1018 YLO BLU TEMPO YLO ETMN 191540Z 29013KT 4000 TSRA BR FEW026 BKN045CB OVC060 18/15 Q1017 GRN BLU TEMPO YLO ETMN 191536Z 29012KT 6000 TSRA SCT026 BKN040CB OVC060 18/15 Q1018 WHT BLU TEMPO YLO ETMN 191526Z 32011KT 9999 -TSRA BKN030CB BKN080 OVC100 18/15 Q1017 BLU BLU TEMPO YLO ETMN 191520Z 32012KT 9999 -RA SCT030CB BKN080 OVC100 19/16 Q1017 BLU BLU TEMPO YLO ETMN 191420Z 03003KT 9999 BKN100 BKN140 OVC230 24/14 Q1015 BLU BLU ETMN 191320Z 12004KT 9999 BKN140 BKN220 24/15 Q1016 BLU BLU TEMPO GRN ETMN 191300Z 13004KT 8000 SCT150 BKN190 BKN240 24/15 Q1016 BLU BLU TEMPO GRN ETMN 191220Z 14003KT 7000 FEW080 SCT150 BKN200 21/16 Q1016 WHT BLU TEMPO GRN ETMN 191120Z 35003KT 8000 BKN080 BKN100 OVC140 20/15 Q1017 BLU BLU TEMPO GRN ETMN 191020Z 30010KT 9000 SCT150 BKN180 BKN250 20/15 Q1018 BLU BLU TEMPO WHT ETMN 190820Z 25012KT 9999 FEW110 BKN200 22/14 Q1017 BLU+BLU+ TEMPO WHT ETMN 190720Z 18008KT 9999 FEW070 SCT110 BKN210 22/14 Q1017 BLU+BLU+ ETMN 190650Z 16008KT 9000 FEW070 BKN220 20/15 Q1017 BLU+BLU TEMPO BLU+ ETMN 190635Z 14007KT 6000 FEW090 BKN220 19/15 Q1017 WHT WHT BECMG BLU ETMN 190620Z 13007KT 4500 BR FEW090 BKN220 18/15 Q1017 GRN GRN BECMG WHT ETMN 190606Z 13006KT 4000 BR SCT100 BKN240 17/14 Q1017 GRN GRN BECMG WHT ETMN 190520Z 11004KT 1600 R08/3400U VCFG BR SCT110 BKN250 15/14 Q1018 YLO YLO BECMG GRN ETMN 190445Z 09003KT 0900 FG FEW080 SCT110 BKN250 15/14 Q1018 AMB YLO TEMPO RED ETMN 190420Z 08003KT 0700 FG FEW080 BKN250 14/14 Q1018 RED YLO TEMPO RED ETMN 190414Z 09002KT 0700 FG FEW080 BKN250 14/14 Q1018 RED ETMN 190349Z 09003KT 0900 FG FEW080 SCT250 BKN300 14/13 Q1018 AMB ETMN 190320Z VRB01KT 1500 VCFG MIFG FEW080 BKN250 BKN310 13/13 Q1018 AMB ETMN 190258Z 08001KT 1500 MIFG BR FEW080 BKN260 BKN310 14/13 Q1018 AMB ETMN 190220Z 00000KT 3000 MIFG BR FEW080 BKN260 14/13 Q1018 YLO ETMN 190120Z VRB01KT 3500 BR SCT080 BKN270 14/13 Q1018 YLO ETMN 190020Z 17001KT 4500 BR FEW090 BKN260 15/13 Q1019 GRN ETMN 190010Z 17001KT 4500 BR FEW080 BKN250 15/13 Q1019 GRN ETMN 182320Z 27004KT 5000 BR BKN250 16/14 Q1019 WHT ETMN 182220Z 29002KT 6000 FEW080 BKN250 16/13 Q1019 WHT ETMN 182141Z 30003KT 6000 FEW080 BKN250 17/14 Q1019 WHT ETMN 182126Z 30005KT 8000 FEW080 BKN250 17/13 Q1019 BLU+FCST CNL ETMN 182120Z 30005KT 8000 FEW080 BKN250 17/14 Q1019 BLU+BLU TEMPO BLU+ ETMN 182020Z 29005KT 9999 SCT080 BKN270 18/14 Q1019 BLU+BLU TEMPO BLU+ ETMN 181920Z 31004KT 9999 FEW060 BKN080 BKN260 21/15 Q1019 BLU BLU TEMPO BLU+ ETMN 181820Z 11003KT 9999 FEW050 BKN095 BKN310 24/14 Q1019 BLU BLU TEMPO BLU+ ETMN 181720Z 09004KT 9999 -SHRA SCT050TCU SCT060 BKN230 24/14 Q1019 BLU+BLU+ ETMN 181620Z 07007KT 9999 FEW050TCU BKN060 BKN230 25/13 Q1019 BLU BLU+ TEMPO BLU ETMN 181520Z 06008KT 9999 FEW060 BKN090 BKN260 25/13 Q1019 BLU BLU+ TEMPO BLU ETMN 181420Z VRB02KT 9999 FEW060 SCT110 BKN350 27/10 Q1020 BLU+BLU+ BECMG BLU

METAR Messwerte "NORDHOLZ (GER-NA" ETMN

Zurück zur Übersicht

Ortsname
Ländercode / m ü. NN
Zeit Temperatur Taupunkt Rel.
Luftfeuchte
Luftdruck:
Altimeter
NN
Station
Wind in Beaufort
(Knoten)
Sichtweite
(Meter)
Wolken
(Meter über Grund)
Wettererscheinung
NORDHOLZ (GER-NA
DE 23
Fr 20.05. 03:20121194 %1019
1019
1016
WNW 4 (13)>= 10000Stark bewölkt (180) 
NORDHOLZ (GER-NA
DE 23
Fr 20.05. 02:20121194 %1019
1019
1016
WNW 5 (16)7000Stark bewölkt (120) 
NORDHOLZ (GER-NA
DE 23
Fr 20.05. 01:20131294 %1019
1019
1016
W 5 (16)6000Stark bewölkt (61) 
NORDHOLZ (GER-NA
DE 23
Fr 20.05. 00:20151494 %1018
1018
1015
W 4 (13)7000Stark bewölkt (370)
Stark bewölkt (120)
 
NORDHOLZ (GER-NA
DE 23
Do 19.05. 23:20161594 %1018
1018
1015
WNW 2 (6)9000Stark bewölkt (300) 
NORDHOLZ (GER-NA
DE 23
Do 19.05. 22:20171694 %1017
1017
1014
WNW 2 (6)9000Stark bewölkt (9100)
Wolkig (880)
Leicht bewölkt (370)
 
NORDHOLZ (GER-NA
DE 23
Do 19.05. 21:36171694 %1017
1017
1014
WSW 3 (7)9000Stark bewölkt (9100)
Wolkig (880)
 
NORDHOLZ (GER-NA
DE 23
Do 19.05. 21:20171694 %1017
1017
1014
WSW 3 (7)7000Stark bewölkt (9100)
Wolkig (3000)
Leicht bewölkt (91)
 
NORDHOLZ (GER-NA
DE 23
Do 19.05. 20:20171694 %1015
1015
1012
W 2 (4)5000Stark bewölkt (8200)
Leicht bewölkt (91)
Nebeldunst
NORDHOLZ (GER-NA
DE 23
Do 19.05. 19:58171694 %1015
1015
1012
NW 2 (4)4800Stark bewölkt (7600)
Wolkig (3000)
Wolkig (91)
Nebeldunst
NORDHOLZ (GER-NA
DE 23
Do 19.05. 19:20171694 %1015
1015
1012
ONO 1 (2)4500Stark bewölkt (6700)
Stark bewölkt (3700)
Leicht bewölkt (91)
Nebeldunst
NORDHOLZ (GER-NA
DE 23
Do 19.05. 18:20161594 %1016
1016
1013
W 2 (4)5000Stark bewölkt (3000)
Stark bewölkt (1800)
Regen (schwach)
Nebeldunst
NORDHOLZ (GER-NA
DE 23
Do 19.05. 17:54171588 %1018
1018
1015
W 5 (18)3000Bedeckt (2400)
Stark bewölkt Cb (1500)
Gewitter mit Regen (stark)
Nebeldunst
NORDHOLZ (GER-NA
DE 23
Do 19.05. 17:40181583 %1017
1017
1014
WNW 4 (13)4000Bedeckt (1800)
Stark bewölkt Cb (1400)
Leicht bewölkt (790)
Gewitter mit Regen
Nebeldunst
NORDHOLZ (GER-NA
DE 23
Do 19.05. 17:36181583 %1018
1018
1015
WNW 4 (12)6000Bedeckt (1800)
Stark bewölkt Cb (1200)
Wolkig (790)
Gewitter mit Regen
NORDHOLZ (GER-NA
DE 23
Do 19.05. 17:26181583 %1017
1017
1014
NW 4 (11)>= 10000Bedeckt (3000)
Stark bewölkt (2400)
Stark bewölkt Cb (910)
Gewitter mit Regen (schwach)
NORDHOLZ (GER-NA
DE 23
Do 19.05. 17:20191683 %1017
1017
1014
NW 4 (12)>= 10000Bedeckt (3000)
Stark bewölkt (2400)
Wolkig Cb (910)
Regen (schwach)
NORDHOLZ (GER-NA
DE 23
Do 19.05. 16:20241454 %1015
1015
1012
NNO 2 (3)>= 10000Bedeckt (7000)
Stark bewölkt (4300)
Stark bewölkt (3000)
 
NORDHOLZ (GER-NA
DE 23
Do 19.05. 15:20241557 %1016
1016
1013
OSO 2 (4)>= 10000Stark bewölkt (6700)
Stark bewölkt (4300)
 
NORDHOLZ (GER-NA
DE 23
Do 19.05. 15:00241557 %1016
1016
1013
SO 2 (4)8000Stark bewölkt (7300)
Stark bewölkt (5800)
Wolkig (4600)
 
NORDHOLZ (GER-NA
DE 23
Do 19.05. 14:20211673 %1016
1016
1013
SO 2 (3)7000Stark bewölkt (6100)
Wolkig (4600)
Leicht bewölkt (2400)
 
NORDHOLZ (GER-NA
DE 23
Do 19.05. 13:20201573 %1017
1017
1014
N 2 (3)8000Bedeckt (4300)
Stark bewölkt (3000)
Stark bewölkt (2400)
 
NORDHOLZ (GER-NA
DE 23
Do 19.05. 12:20201573 %1018
1018
1015
WNW 3 (10)9000Stark bewölkt (7600)
Stark bewölkt (5500)
Wolkig (4600)
 
NORDHOLZ (GER-NA
DE 23
Do 19.05. 10:20221460 %1017
1017
1014
WSW 4 (12)>= 10000Stark bewölkt (6100)
Leicht bewölkt (3400)
 
NORDHOLZ (GER-NA
DE 23
Do 19.05. 09:20221460 %1017
1017
1014
S 3 (8)>= 10000Stark bewölkt (6400)
Wolkig (3400)
Leicht bewölkt (2100)
 
NORDHOLZ (GER-NA
DE 23
Do 19.05. 08:50201573 %1017
1017
1014
SSO 3 (8)9000Stark bewölkt (6700)
Leicht bewölkt (2100)
 
NORDHOLZ (GER-NA
DE 23
Do 19.05. 08:35191578 %1017
1017
1014
SO 3 (7)6000Stark bewölkt (6700)
Leicht bewölkt (2700)
 
NORDHOLZ (GER-NA
DE 23
Do 19.05. 08:20181583 %1017
1017
1014
SO 3 (7)4500Stark bewölkt (6700)
Leicht bewölkt (2700)
Nebeldunst
NORDHOLZ (GER-NA
DE 23
Do 19.05. 08:06171482 %1017
1017
1014
SO 2 (6)4000Stark bewölkt (7300)
Wolkig (3000)
Nebeldunst
NORDHOLZ (GER-NA
DE 23
Do 19.05. 07:20151494 %1018
1018
1015
OSO 2 (4)1600Stark bewölkt (7600)
Wolkig (3400)
Nebel
Nebeldunst
NORDHOLZ (GER-NA
DE 23
Do 19.05. 06:45151494 %1018
1018
1015
O 2 (3)900Stark bewölkt (7600)
Wolkig (3400)
Leicht bewölkt (2400)
Nebel
NORDHOLZ (GER-NA
DE 23
Do 19.05. 06:201414100 %1018
1018
1015
O 2 (3)700Stark bewölkt (7600)
Leicht bewölkt (2400)
Nebel
NORDHOLZ (GER-NA
DE 23
Do 19.05. 06:141414100 %1018
1018
1015
O 1 (2)700Stark bewölkt (7600)
Leicht bewölkt (2400)
Nebel
NORDHOLZ (GER-NA
DE 23
Do 19.05. 05:49141394 %1018
1018
1015
O 2 (3)900Stark bewölkt (9100)
Wolkig (7600)
Leicht bewölkt (2400)
Nebel
NORDHOLZ (GER-NA
DE 23
Do 19.05. 05:201313100 %1018
1018
1015
Uml 1 (1)1500Stark bewölkt (9400)
Stark bewölkt (7600)
Leicht bewölkt (2400)
Nebel
Boden-Nebel
NORDHOLZ (GER-NA
DE 23
Do 19.05. 04:58141394 %1018
1018
1015
O 1 (1)1500Stark bewölkt (9400)
Stark bewölkt (7900)
Leicht bewölkt (2400)
Boden-Nebel
Nebeldunst
NORDHOLZ (GER-NA
DE 23
Do 19.05. 04:20141394 %1018
1018
1015
Windstill3000Stark bewölkt (7900)
Leicht bewölkt (2400)
Boden-Nebel
Nebeldunst
NORDHOLZ (GER-NA
DE 23
Do 19.05. 03:20141394 %1018
1018
1015
Uml 1 (1)3500Stark bewölkt (8200)
Wolkig (2400)
Nebeldunst
NORDHOLZ (GER-NA
DE 23
Do 19.05. 02:20151388 %1019
1019
1016
S 1 (1)4500Stark bewölkt (7900)
Leicht bewölkt (2700)
Nebeldunst
NORDHOLZ (GER-NA
DE 23
Do 19.05. 02:10151388 %1019
1019
1016
S 1 (1)4500Stark bewölkt (7600)
Leicht bewölkt (2400)
Nebeldunst
NORDHOLZ (GER-NA
DE 23
Do 19.05. 01:20161488 %1019
1019
1016
W 2 (4)5000Stark bewölkt (7600)Nebeldunst
NORDHOLZ (GER-NA
DE 23
Do 19.05. 00:20161382 %1019
1019
1016
WNW 1 (2)6000Stark bewölkt (7600)
Leicht bewölkt (2400)
 
NORDHOLZ (GER-NA
DE 23
Mi 18.05. 23:41171482 %1019
1019
1016
WNW 2 (3)6000Stark bewölkt (7600)
Leicht bewölkt (2400)
 
NORDHOLZ (GER-NA
DE 23
Mi 18.05. 23:26171377 %1019
1019
1016
WNW 2 (5)8000Stark bewölkt (7600)
Leicht bewölkt (2400)
 
NORDHOLZ (GER-NA
DE 23
Mi 18.05. 23:20171482 %1019
1019
1016
WNW 2 (5)8000Stark bewölkt (7600)
Leicht bewölkt (2400)
 
NORDHOLZ (GER-NA
DE 23
Mi 18.05. 22:20181477 %1019
1019
1016
WNW 2 (5)>= 10000Stark bewölkt (8200)
Wolkig (2400)
 
NORDHOLZ (GER-NA
DE 23
Mi 18.05. 21:20211569 %1019
1019
1016
NW 2 (4)>= 10000Stark bewölkt (7900)
Stark bewölkt (2400)
Leicht bewölkt (1800)
 
NORDHOLZ (GER-NA
DE 23
Mi 18.05. 20:20241454 %1019
1019
1016
OSO 2 (3)>= 10000Stark bewölkt (9400)
Stark bewölkt (2900)
Leicht bewölkt (1500)
 
NORDHOLZ (GER-NA
DE 23
Mi 18.05. 19:20241454 %1019
1019
1016
O 2 (4)>= 10000Stark bewölkt (7000)
Wolkig (1800)
Wolkig (1500)
Regen-Schauer (schwach)
NORDHOLZ (GER-NA
DE 23
Mi 18.05. 18:20251347 %1019
1019
1016
ONO 3 (7)>= 10000Stark bewölkt (7000)
Stark bewölkt (1800)
Leicht bewölkt (1500)
 
NORDHOLZ (GER-NA
DE 23
Mi 18.05. 17:20251347 %1019
1019
1016
ONO 3 (8)>= 10000Stark bewölkt (7900)
Stark bewölkt (2700)
Leicht bewölkt (1800)
 
NORDHOLZ (GER-NA
DE 23
Mi 18.05. 16:20271034 %1020
1020
1017
Uml 1 (2)>= 10000Stark bewölkt (11000)
Wolkig (3400)
Leicht bewölkt (1800)
 

Altimeter: Einstellung am Altimeter (Höhenmesser), die Höhe 0 muss auf diesen Luftdruckwert zeigen, damit das Gerät die Stationshöhe richtig anzeigt.

NN: Luftdruck reduziert auf "Normal Null", auf Meereshöhe, dieser von der Temperatur abhängige Wert wird bisweilen unkorrekt einfach als "Luftdruck" bezeichnet. Eigentlich nur eine fiktive Größe, die es erlaubt, Stationen auf unterschiedlichen Höhen miteinander zu vergleichen.

Station: Realer Luftdruck an der Station.